createdAt,value
2022-08-24T00:00:38.798Z,1015.99
2022-08-24T00:01:38.801Z,1016.03
2022-08-24T00:02:38.959Z,1016.01
2022-08-24T00:03:38.814Z,1016.02
2022-08-24T00:04:38.752Z,1016.05
2022-08-24T00:05:38.742Z,1016.05
2022-08-24T00:06:38.732Z,1016.10
2022-08-24T00:07:38.751Z,1016.04
2022-08-24T00:08:38.709Z,1016.05
2022-08-24T00:09:38.697Z,1015.98
2022-08-24T00:10:38.688Z,1015.99
2022-08-24T00:11:38.677Z,1015.97
2022-08-24T00:12:38.666Z,1016.03
2022-08-24T00:13:39.505Z,1016.00
2022-08-24T00:14:38.644Z,1016.01
2022-08-24T00:15:38.633Z,1016.00
2022-08-24T00:16:38.682Z,1015.97
2022-08-24T00:17:38.612Z,1015.92
2022-08-24T00:18:38.603Z,1015.97
2022-08-24T00:19:38.599Z,1015.95
2022-08-24T00:20:42.078Z,1015.94
2022-08-24T00:21:39.568Z,1015.91
2022-08-24T00:22:38.558Z,1015.94
2022-08-24T00:23:38.548Z,1015.98
2022-08-24T00:24:38.536Z,1015.99
2022-08-24T00:25:38.545Z,1015.99
2022-08-24T00:26:38.515Z,1016.04
2022-08-24T00:27:38.503Z,1016.07
2022-08-24T00:28:38.492Z,1016.06
2022-08-24T00:29:38.486Z,1016.11
2022-08-24T00:30:38.470Z,1016.08
2022-08-24T00:31:38.511Z,1016.08
2022-08-24T00:32:38.453Z,1016.08
2022-08-24T00:33:38.438Z,1016.04
2022-08-24T00:34:38.427Z,1016.03
2022-08-24T00:35:38.418Z,1016.06
2022-08-24T00:36:38.406Z,1016.09
2022-08-24T00:37:38.412Z,1016.08
2022-08-24T00:38:38.385Z,1016.09
2022-08-24T00:39:38.397Z,1016.13
2022-08-24T00:40:38.362Z,1016.08
2022-08-24T00:41:38.366Z,1016.07
2022-08-24T00:42:38.340Z,1016.06
2022-08-24T00:43:38.363Z,1016.08
2022-08-24T00:44:38.325Z,1016.08
2022-08-24T00:45:38.344Z,1016.07
2022-08-24T00:46:38.298Z,1016.05
2022-08-24T00:47:38.287Z,1016.05
2022-08-24T00:48:38.277Z,1016.02
2022-08-24T00:49:38.272Z,1016.04
2022-08-24T00:50:38.258Z,1016.03
2022-08-24T00:51:38.245Z,1016.00
2022-08-24T00:52:38.233Z,1016.02
2022-08-24T00:53:38.222Z,1016.05
2022-08-24T00:54:40.740Z,1016.11
2022-08-24T00:55:39.220Z,1016.05
2022-08-24T00:56:38.189Z,1016.04
2022-08-24T00:57:38.179Z,1016.01
2022-08-24T00:58:38.168Z,1016.08
2022-08-24T00:59:38.158Z,1016.04
2022-08-24T01:00:38.197Z,1016.06
2022-08-24T01:01:38.188Z,1016.10
2022-08-24T01:02:38.183Z,1016.10
2022-08-24T01:03:38.113Z,1016.10
2022-08-24T01:04:38.103Z,1016.13
2022-08-24T01:05:38.097Z,1016.13
2022-08-24T01:06:38.083Z,1016.13
2022-08-24T01:07:38.076Z,1016.12
2022-08-24T01:08:38.060Z,1016.17
2022-08-24T01:09:38.049Z,1016.16
2022-08-24T01:10:38.040Z,1016.20
2022-08-24T01:11:38.035Z,1016.15
2022-08-24T01:12:38.016Z,1016.18
2022-08-24T01:13:38.022Z,1016.14
2022-08-24T01:14:37.994Z,1016.15
2022-08-24T01:15:37.986Z,1016.16
2022-08-24T01:16:38.077Z,1016.16
2022-08-24T01:17:38.030Z,1016.12
2022-08-24T01:18:37.952Z,1016.14
2022-08-24T01:19:37.985Z,1016.11
2022-08-24T01:20:37.930Z,1016.14
2022-08-24T01:21:37.919Z,1016.16
2022-08-24T01:22:37.908Z,1016.17
2022-08-24T01:23:37.897Z,1016.17
2022-08-24T01:24:37.886Z,1016.13
2022-08-24T01:25:37.884Z,1016.16
2022-08-24T01:26:37.870Z,1016.16
2022-08-24T01:27:37.853Z,1016.15
2022-08-24T01:28:37.844Z,1016.16
2022-08-24T01:29:37.835Z,1016.16
2022-08-24T01:30:37.829Z,1016.19
2022-08-24T01:31:37.929Z,1016.15
2022-08-24T01:32:37.799Z,1016.14
2022-08-24T01:33:37.790Z,1016.10
2022-08-24T01:34:37.779Z,1016.12
2022-08-24T01:35:37.767Z,1016.08
2022-08-24T01:36:37.756Z,1016.10
2022-08-24T01:37:37.752Z,1016.11
2022-08-24T01:38:37.736Z,1016.14
2022-08-24T01:39:37.723Z,1016.17
2022-08-24T01:40:37.715Z,1016.17
2022-08-24T01:41:37.704Z,1016.16
2022-08-24T01:42:37.694Z,1016.19
2022-08-24T01:43:37.687Z,1016.19
2022-08-24T01:44:37.670Z,1016.18
2022-08-24T01:45:37.659Z,1016.19
2022-08-24T01:46:37.939Z,1016.16
2022-08-24T01:47:37.637Z,1016.18
2022-08-24T01:48:37.627Z,1016.18
2022-08-24T01:49:37.629Z,1016.16
2022-08-24T01:50:37.604Z,1016.15
2022-08-24T01:51:37.594Z,1016.14
2022-08-24T01:53:03.422Z,1016.20
2022-08-24T01:53:38.570Z,1016.18
2022-08-24T01:54:37.560Z,1016.19
2022-08-24T01:55:37.581Z,1016.18
2022-08-24T01:56:37.934Z,1016.18
2022-08-24T01:57:37.528Z,1016.24
2022-08-24T01:58:37.517Z,1016.22
2022-08-24T01:59:37.507Z,1016.18
2022-08-24T02:00:37.496Z,1016.21
2022-08-24T02:01:37.524Z,1016.17
2022-08-24T02:02:37.531Z,1016.19
2022-08-24T02:03:37.465Z,1016.18
2022-08-24T02:04:37.451Z,1016.21
2022-08-24T02:05:37.441Z,1016.19
2022-08-24T02:06:37.431Z,1016.25
2022-08-24T02:07:37.425Z,1016.24
2022-08-24T02:08:37.409Z,1016.31
2022-08-24T02:09:37.399Z,1016.28
2022-08-24T02:10:37.391Z,1016.33
2022-08-24T02:11:37.380Z,1016.32
2022-08-24T02:12:37.366Z,1016.34
2022-08-24T02:13:37.375Z,1016.34
2022-08-24T02:14:37.353Z,1016.31
2022-08-24T02:15:37.377Z,1016.32
2022-08-24T02:16:37.324Z,1016.32
2022-08-24T02:17:37.311Z,1016.33
2022-08-24T02:18:37.300Z,1016.35
2022-08-24T02:19:37.469Z,1016.28
2022-08-24T02:20:37.280Z,1016.26
2022-08-24T02:21:37.268Z,1016.24
2022-08-24T02:22:37.338Z,1016.23
2022-08-24T02:23:37.251Z,1016.22
2022-08-24T02:24:37.236Z,1016.24
2022-08-24T02:25:37.237Z,1016.27
2022-08-24T02:26:37.214Z,1016.27
2022-08-24T02:27:37.203Z,1016.28
2022-08-24T02:28:37.192Z,1016.26
2022-08-24T02:29:37.183Z,1016.27
2022-08-24T02:30:37.170Z,1016.27
2022-08-24T02:31:37.325Z,1016.29
2022-08-24T02:32:37.151Z,1016.29
2022-08-24T02:33:37.140Z,1016.31
2022-08-24T02:34:37.127Z,1016.30
2022-08-24T02:35:37.117Z,1016.30
2022-08-24T02:36:37.106Z,1016.31
2022-08-24T02:37:43.352Z,1016.27
2022-08-24T02:38:38.082Z,1016.28
2022-08-24T02:39:37.075Z,1016.26
2022-08-24T02:40:37.065Z,1016.25
2022-08-24T02:41:37.054Z,1016.26
2022-08-24T02:42:37.042Z,1016.28
2022-08-24T02:43:38.662Z,1016.25
2022-08-24T02:44:37.019Z,1016.25
2022-08-24T02:45:37.009Z,1016.22
2022-08-24T02:46:37.114Z,1016.24
2022-08-24T02:47:38.747Z,1016.22
2022-08-24T02:48:36.976Z,1016.21
2022-08-24T02:49:36.986Z,1016.20
2022-08-24T02:50:36.955Z,1016.22
2022-08-24T02:51:42.255Z,1016.21
2022-08-24T02:52:37.931Z,1016.17
2022-08-24T02:53:36.922Z,1016.17
2022-08-24T02:54:36.912Z,1016.21
2022-08-24T02:55:36.918Z,1016.20
2022-08-24T02:56:36.889Z,1016.22
2022-08-24T02:57:38.840Z,1016.22
2022-08-24T02:58:36.868Z,1016.25
2022-08-24T02:59:36.857Z,1016.19
2022-08-24T03:00:36.846Z,1016.19
2022-08-24T03:01:36.866Z,1016.23
2022-08-24T03:02:36.921Z,1016.21
2022-08-24T03:03:36.814Z,1016.23
2022-08-24T03:04:36.802Z,1016.21
2022-08-24T03:05:36.792Z,1016.23
2022-08-24T03:06:36.781Z,1016.21
2022-08-24T03:07:36.801Z,1016.20
2022-08-24T03:08:36.759Z,1016.18
2022-08-24T03:09:36.749Z,1016.19
2022-08-24T03:10:36.738Z,1016.23
2022-08-24T03:11:36.727Z,1016.20
2022-08-24T03:12:36.719Z,1016.21
2022-08-24T03:13:36.711Z,1016.22
2022-08-24T03:14:36.696Z,1016.21
2022-08-24T03:15:36.726Z,1016.21
2022-08-24T03:16:36.673Z,1016.23
2022-08-24T03:17:36.663Z,1016.23
2022-08-24T03:18:36.655Z,1016.22
2022-08-24T03:19:36.647Z,1016.15
2022-08-24T03:20:36.632Z,1016.20
2022-08-24T03:21:36.618Z,1016.15
2022-08-24T03:22:36.609Z,1016.16
2022-08-24T03:23:36.599Z,1016.12
2022-08-24T03:24:36.591Z,1016.14
2022-08-24T03:25:36.611Z,1016.10
2022-08-24T03:26:36.573Z,1016.16
2022-08-24T03:27:36.554Z,1016.15
2022-08-24T03:28:36.542Z,1016.12
2022-08-24T03:29:36.535Z,1016.16
2022-08-24T03:30:36.586Z,1016.18
2022-08-24T03:31:36.527Z,1016.18
2022-08-24T03:32:36.500Z,1016.16
2022-08-24T03:33:36.490Z,1016.15
2022-08-24T03:34:36.479Z,1016.19
2022-08-24T03:35:36.467Z,1016.11
2022-08-24T03:36:36.456Z,1016.16
2022-08-24T03:37:36.452Z,1016.19
2022-08-24T03:38:36.434Z,1016.17
2022-08-24T03:39:36.423Z,1016.15
2022-08-24T03:40:36.454Z,1016.15
2022-08-24T03:41:36.706Z,1016.15
2022-08-24T03:42:36.390Z,1016.19
2022-08-24T03:43:36.409Z,1016.19
2022-08-24T03:44:36.372Z,1016.18
2022-08-24T03:45:36.424Z,1016.23
2022-08-24T03:46:36.348Z,1016.25
2022-08-24T03:47:36.338Z,1016.20
2022-08-24T03:48:36.328Z,1016.25
2022-08-24T03:49:36.322Z,1016.24
2022-08-24T03:50:36.305Z,1016.24
2022-08-24T03:51:36.294Z,1016.27
2022-08-24T03:52:36.283Z,1016.27
2022-08-24T03:53:36.803Z,1016.23
2022-08-24T03:54:36.262Z,1016.26
2022-08-24T03:55:36.257Z,1016.23
2022-08-24T03:56:36.250Z,1016.26
2022-08-24T03:57:36.229Z,1016.22
2022-08-24T03:58:36.218Z,1016.26
2022-08-24T03:59:37.641Z,1016.25
2022-08-24T04:00:37.218Z,1016.26
2022-08-24T04:01:36.256Z,1016.26
2022-08-24T04:02:36.203Z,1016.24
2022-08-24T04:03:36.163Z,1016.26
2022-08-24T04:04:36.153Z,1016.27
2022-08-24T04:05:36.143Z,1016.29
2022-08-24T04:06:36.149Z,1016.28
2022-08-24T04:07:36.124Z,1016.31
2022-08-24T04:08:36.110Z,1016.31
2022-08-24T04:09:36.099Z,1016.35
2022-08-24T04:10:36.087Z,1016.39
2022-08-24T04:11:40.551Z,1016.37
2022-08-24T04:12:37.073Z,1016.40
2022-08-24T04:13:36.056Z,1016.43
2022-08-24T04:14:36.047Z,1016.39
2022-08-24T04:15:36.034Z,1016.42
2022-08-24T04:16:36.039Z,1016.42
2022-08-24T04:17:36.012Z,1016.45
2022-08-24T04:18:36.034Z,1016.45
2022-08-24T04:19:35.990Z,1016.40
2022-08-24T04:20:35.980Z,1016.44
2022-08-24T04:21:35.969Z,1016.46
2022-08-24T04:22:35.958Z,1016.48
2022-08-24T04:23:47.284Z,1016.48
2022-08-24T04:24:36.942Z,1016.57
2022-08-24T04:25:35.927Z,1016.55
2022-08-24T04:26:44.766Z,1016.56
2022-08-24T04:27:36.904Z,1016.56
2022-08-24T04:28:35.893Z,1016.55
2022-08-24T04:29:35.889Z,1016.55
2022-08-24T04:30:35.907Z,1016.56
2022-08-24T04:31:35.924Z,1016.52
2022-08-24T04:32:35.852Z,1016.54
2022-08-24T04:33:35.839Z,1016.55
2022-08-24T04:34:35.828Z,1016.59
2022-08-24T04:35:35.818Z,1016.58
2022-08-24T04:36:35.814Z,1016.58
2022-08-24T04:37:35.802Z,1016.55
2022-08-24T04:38:35.788Z,1016.59
2022-08-24T04:39:35.774Z,1016.55
2022-08-24T04:40:35.763Z,1016.55
2022-08-24T04:41:35.753Z,1016.58
2022-08-24T04:42:35.756Z,1016.55
2022-08-24T04:43:35.735Z,1016.58
2022-08-24T04:44:35.720Z,1016.57
2022-08-24T04:45:35.757Z,1016.57
2022-08-24T04:46:35.699Z,1016.57
2022-08-24T04:47:35.687Z,1016.59
2022-08-24T04:48:35.684Z,1016.61
2022-08-24T04:49:35.667Z,1016.57
2022-08-24T04:50:35.656Z,1016.59
2022-08-24T04:51:36.614Z,1016.58
2022-08-24T04:52:35.634Z,1016.61
2022-08-24T04:53:35.623Z,1016.62
2022-08-24T04:54:35.643Z,1016.60
2022-08-24T04:55:35.602Z,1016.61
2022-08-24T04:56:35.593Z,1016.64
2022-08-24T04:57:35.580Z,1016.61
2022-08-24T04:58:35.569Z,1016.64
2022-08-24T04:59:35.559Z,1016.66
2022-08-24T05:00:35.588Z,1016.66
2022-08-24T05:01:35.536Z,1016.67
2022-08-24T05:02:39.817Z,1016.67
2022-08-24T05:03:36.513Z,1016.64
2022-08-24T05:04:35.504Z,1016.68
2022-08-24T05:05:35.493Z,1016.70
2022-08-24T05:06:35.503Z,1016.71
2022-08-24T05:07:35.471Z,1016.70
2022-08-24T05:08:35.462Z,1016.70
2022-08-24T05:09:35.453Z,1016.70
2022-08-24T05:10:35.440Z,1016.71
2022-08-24T05:11:35.427Z,1016.77
2022-08-24T05:12:35.424Z,1016.74
2022-08-24T05:13:35.405Z,1016.75
2022-08-24T05:14:35.397Z,1016.79
2022-08-24T05:15:35.386Z,1016.78
2022-08-24T05:16:35.430Z,1016.82
2022-08-24T05:17:35.364Z,1016.83
2022-08-24T05:18:35.367Z,1016.87
2022-08-24T05:19:35.344Z,1016.80
2022-08-24T05:20:35.330Z,1016.84
2022-08-24T05:21:35.322Z,1016.83
2022-08-24T05:22:35.308Z,1016.87
2022-08-24T05:23:35.301Z,1016.87
2022-08-24T05:24:35.293Z,1016.89
2022-08-24T05:25:35.279Z,1016.92
2022-08-24T05:26:35.265Z,1016.84
2022-08-24T05:27:35.257Z,1016.92
2022-08-24T05:28:35.245Z,1016.92
2022-08-24T05:29:35.233Z,1016.92
2022-08-24T05:30:37.359Z,1016.89
2022-08-24T05:31:36.311Z,1016.89
2022-08-24T05:32:35.201Z,1016.88
2022-08-24T05:33:35.189Z,1016.85
2022-08-24T05:34:35.180Z,1016.85
2022-08-24T05:35:35.168Z,1016.86
2022-08-24T05:36:35.164Z,1016.84
2022-08-24T05:37:35.146Z,1016.88
2022-08-24T05:38:35.136Z,1016.86
2022-08-24T05:39:35.125Z,1016.89
2022-08-24T05:40:35.113Z,1016.87
2022-08-24T05:41:35.103Z,1016.90
2022-08-24T05:42:35.113Z,1016.86
2022-08-24T05:43:35.082Z,1016.87
2022-08-24T05:44:35.071Z,1016.84
2022-08-24T05:45:35.060Z,1016.90
2022-08-24T05:46:35.071Z,1016.94
2022-08-24T05:47:35.133Z,1016.96
2022-08-24T05:48:35.034Z,1016.89
2022-08-24T05:49:39.459Z,1016.96
2022-08-24T05:50:36.004Z,1016.93
2022-08-24T05:51:34.994Z,1016.98
2022-08-24T05:52:34.984Z,1016.97
2022-08-24T05:53:34.975Z,1016.97
2022-08-24T05:54:34.969Z,1017.00
2022-08-24T05:55:34.952Z,1016.98
2022-08-24T05:56:34.941Z,1017.00
2022-08-24T05:57:34.929Z,1017.03
2022-08-24T05:58:34.919Z,1017.05
2022-08-24T05:59:34.911Z,1017.05
2022-08-24T06:00:34.938Z,1017.05
2022-08-24T06:01:34.966Z,1017.11
2022-08-24T06:02:35.044Z,1017.06
2022-08-24T06:03:34.867Z,1017.04
2022-08-24T06:04:34.855Z,1017.04
2022-08-24T06:05:34.849Z,1017.03
2022-08-24T06:06:34.840Z,1017.05
2022-08-24T06:07:34.823Z,1017.07
2022-08-24T06:08:38.112Z,1017.01
2022-08-24T06:09:35.833Z,1017.03
2022-08-24T06:10:36.642Z,1016.98
2022-08-24T06:11:34.779Z,1016.99
2022-08-24T06:12:34.775Z,1016.99
2022-08-24T06:13:34.758Z,1017.01
2022-08-24T06:14:34.746Z,1016.99
2022-08-24T06:15:34.735Z,1017.05
2022-08-24T06:16:34.756Z,1016.98
2022-08-24T06:17:34.931Z,1017.01
2022-08-24T06:18:34.711Z,1017.01
2022-08-24T06:19:34.692Z,1017.03
2022-08-24T06:20:34.683Z,1017.02
2022-08-24T06:21:34.670Z,1017.04
2022-08-24T06:22:34.663Z,1017.06
2022-08-24T06:23:34.648Z,1017.03
2022-08-24T06:24:34.648Z,1017.09
2022-08-24T06:25:34.627Z,1017.08
2022-08-24T06:26:34.616Z,1017.07
2022-08-24T06:27:34.605Z,1017.06
2022-08-24T06:28:34.597Z,1017.11
2022-08-24T06:29:34.584Z,1017.12
2022-08-24T06:30:34.579Z,1017.14
2022-08-24T06:31:39.331Z,1017.12
2022-08-24T06:32:35.559Z,1017.12
2022-08-24T06:33:34.541Z,1017.14
2022-08-24T06:34:34.529Z,1017.16
2022-08-24T06:35:34.528Z,1017.19
2022-08-24T06:36:34.531Z,1017.20
2022-08-24T06:37:34.498Z,1017.20
2022-08-24T06:38:34.487Z,1017.19
2022-08-24T06:39:34.478Z,1017.18
2022-08-24T06:40:34.550Z,1017.20
2022-08-24T06:41:34.456Z,1017.20
2022-08-24T06:42:34.463Z,1017.17
2022-08-24T06:43:34.435Z,1017.15
2022-08-24T06:44:34.423Z,1017.16
2022-08-24T06:45:34.412Z,1017.15
2022-08-24T06:46:34.443Z,1017.19
2022-08-24T06:47:34.390Z,1017.20
2022-08-24T06:48:34.384Z,1017.22
2022-08-24T06:49:34.367Z,1017.22
2022-08-24T06:50:34.358Z,1017.23
2022-08-24T06:51:34.348Z,1017.26
2022-08-24T06:52:34.334Z,1017.22
2022-08-24T06:53:34.324Z,1017.22
2022-08-24T06:54:34.329Z,1017.25
2022-08-24T06:55:34.302Z,1017.21
2022-08-24T06:56:34.292Z,1017.23
2022-08-24T06:57:34.281Z,1017.21
2022-08-24T06:58:34.272Z,1017.20
2022-08-24T06:59:34.260Z,1017.20
2022-08-24T07:00:34.264Z,1017.23
2022-08-24T07:01:34.292Z,1017.23
2022-08-24T07:02:34.314Z,1017.28
2022-08-24T07:03:34.218Z,1017.25
2022-08-24T07:04:34.206Z,1017.33
2022-08-24T07:05:34.194Z,1017.31
2022-08-24T07:06:34.190Z,1017.31
2022-08-24T07:07:34.172Z,1017.34
2022-08-24T07:08:34.163Z,1017.35
2022-08-24T07:09:34.152Z,1017.35
2022-08-24T07:10:34.141Z,1017.34
2022-08-24T07:11:34.132Z,1017.34
2022-08-24T07:12:34.139Z,1017.34
2022-08-24T07:13:34.108Z,1017.30
2022-08-24T07:14:34.098Z,1017.31
2022-08-24T07:15:34.119Z,1017.28
2022-08-24T07:16:34.078Z,1017.24
2022-08-24T07:17:34.065Z,1017.29
2022-08-24T07:18:34.059Z,1017.23
2022-08-24T07:19:34.043Z,1017.23
2022-08-24T07:20:34.033Z,1017.22
2022-08-24T07:21:34.023Z,1017.26
2022-08-24T07:22:34.010Z,1017.28
2022-08-24T07:23:41.554Z,1017.31
2022-08-24T07:24:34.995Z,1017.32
2022-08-24T07:25:33.978Z,1017.34
2022-08-24T07:26:33.966Z,1017.34
2022-08-24T07:27:33.960Z,1017.38
2022-08-24T07:28:33.946Z,1017.35
2022-08-24T07:29:50.454Z,1017.33
2022-08-24T07:30:34.930Z,1017.37
2022-08-24T07:31:35.574Z,1017.37
2022-08-24T07:32:33.903Z,1017.40
2022-08-24T07:33:33.891Z,1017.43
2022-08-24T07:34:33.880Z,1017.42
2022-08-24T07:35:33.872Z,1017.43
2022-08-24T07:36:33.890Z,1017.42
2022-08-24T07:37:41.326Z,1017.39
2022-08-24T07:38:34.837Z,1017.44
2022-08-24T07:39:33.831Z,1017.42
2022-08-24T07:40:43.495Z,1017.41
2022-08-24T07:42:34.832Z,1017.39
2022-08-24T07:43:33.784Z,1017.41
2022-08-24T07:44:33.775Z,1017.40
2022-08-24T07:45:33.765Z,1017.42
2022-08-24T07:46:33.902Z,1017.44
2022-08-24T07:47:38.842Z,1017.44
2022-08-24T07:48:34.730Z,1017.43
2022-08-24T07:49:37.471Z,1017.43
2022-08-24T07:50:34.709Z,1017.45
2022-08-24T07:52:33.690Z,1017.44
2022-08-24T07:53:52.637Z,1017.47
2022-08-24T07:54:34.663Z,1017.46
2022-08-24T07:55:33.654Z,1017.45
2022-08-24T07:56:34.648Z,1017.52
2022-08-24T07:57:33.633Z,1017.50
2022-08-24T07:58:33.624Z,1017.48
2022-08-24T07:59:33.625Z,1017.48
2022-08-24T08:00:33.603Z,1017.50
2022-08-24T08:01:33.708Z,1017.50
2022-08-24T08:02:35.025Z,1017.51
2022-08-24T08:03:33.567Z,1017.52
2022-08-24T08:04:33.556Z,1017.50
2022-08-24T08:05:33.553Z,1017.52
2022-08-24T08:06:33.535Z,1017.52
2022-08-24T08:07:33.530Z,1017.54
2022-08-24T08:08:33.513Z,1017.56
2022-08-24T08:09:33.502Z,1017.56
2022-08-24T08:10:33.498Z,1017.54
2022-08-24T08:11:33.489Z,1017.58
2022-08-24T08:12:33.470Z,1017.53
2022-08-24T08:13:33.489Z,1017.54
2022-08-24T08:14:33.449Z,1017.57
2022-08-24T08:15:33.572Z,1017.58
2022-08-24T08:16:33.500Z,1017.56
2022-08-24T08:17:33.435Z,1017.55
2022-08-24T08:18:33.429Z,1017.53
2022-08-24T08:19:33.394Z,1017.60
2022-08-24T08:20:33.384Z,1017.56
2022-08-24T08:21:33.374Z,1017.62
2022-08-24T08:22:33.362Z,1017.62
2022-08-24T08:23:33.373Z,1017.61
2022-08-24T08:24:33.342Z,1017.62
2022-08-24T08:25:33.330Z,1017.61
2022-08-24T08:26:33.320Z,1017.68
2022-08-24T08:27:33.349Z,1017.66
2022-08-24T08:28:35.896Z,1017.64
2022-08-24T08:29:33.293Z,1017.64
2022-08-24T08:30:33.278Z,1017.65
2022-08-24T08:31:34.308Z,1017.68
2022-08-24T08:32:33.259Z,1017.65
2022-08-24T08:33:33.244Z,1017.60
2022-08-24T08:34:33.232Z,1017.64
2022-08-24T08:35:33.247Z,1017.58
2022-08-24T08:36:33.212Z,1017.68
2022-08-24T08:37:33.275Z,1017.66
2022-08-24T08:38:33.190Z,1017.71
2022-08-24T08:39:33.178Z,1017.70
2022-08-24T08:40:33.167Z,1017.69
2022-08-24T08:41:33.163Z,1017.74
2022-08-24T08:42:33.147Z,1017.72
2022-08-24T08:43:33.135Z,1017.77
2022-08-24T08:44:33.129Z,1017.75
2022-08-24T08:45:33.115Z,1017.79
2022-08-24T08:46:36.372Z,1017.79
2022-08-24T08:47:34.112Z,1017.82
2022-08-24T08:48:33.082Z,1017.81
2022-08-24T08:49:33.077Z,1017.80
2022-08-24T08:50:33.059Z,1017.81
2022-08-24T08:51:33.049Z,1017.81
2022-08-24T08:52:33.037Z,1017.82
2022-08-24T08:53:33.034Z,1017.82
2022-08-24T08:54:33.016Z,1017.81
2022-08-24T08:55:33.007Z,1017.82
2022-08-24T08:56:32.995Z,1017.82
2022-08-24T08:57:32.983Z,1017.84
2022-08-24T08:58:32.974Z,1017.82
2022-08-24T08:59:32.969Z,1017.82
2022-08-24T09:00:32.953Z,1017.82
2022-08-24T09:01:33.085Z,1017.83
2022-08-24T09:02:32.930Z,1017.88
2022-08-24T09:03:32.919Z,1017.88
2022-08-24T09:04:32.949Z,1017.92
2022-08-24T09:05:32.905Z,1017.87
2022-08-24T09:06:32.888Z,1017.89
2022-08-24T09:07:32.875Z,1017.92
2022-08-24T09:08:32.864Z,1017.91
2022-08-24T09:09:34.961Z,1017.94
2022-08-24T09:10:32.842Z,1017.97
2022-08-24T09:11:32.837Z,1017.91
2022-08-24T09:12:32.820Z,1017.95
2022-08-24T09:13:32.809Z,1017.94
2022-08-24T09:14:32.800Z,1017.88
2022-08-24T09:15:32.789Z,1017.92
2022-08-24T09:16:32.852Z,1017.90
2022-08-24T09:17:32.771Z,1017.91
2022-08-24T09:18:32.755Z,1017.87
2022-08-24T09:19:32.745Z,1017.90
2022-08-24T09:20:32.736Z,1017.87
2022-08-24T09:21:32.723Z,1017.86
2022-08-24T09:22:32.714Z,1017.89
2022-08-24T09:23:32.707Z,1017.85
2022-08-24T09:24:32.690Z,1017.87
2022-08-24T09:25:32.680Z,1017.80
2022-08-24T09:26:32.674Z,1017.82
2022-08-24T09:27:32.659Z,1017.81
2022-08-24T09:28:32.647Z,1017.81
2022-08-24T09:29:32.643Z,1017.81
2022-08-24T09:30:32.638Z,1017.80
2022-08-24T09:32:32.604Z,1017.84
2022-08-24T09:33:32.594Z,1017.84
2022-08-24T09:34:32.582Z,1017.86
2022-08-24T09:35:32.577Z,1017.85
2022-08-24T09:36:32.563Z,1017.85
2022-08-24T09:37:32.549Z,1017.88
2022-08-24T09:38:32.538Z,1017.87
2022-08-24T09:39:32.534Z,1017.91
2022-08-24T09:40:32.585Z,1017.90
2022-08-24T09:41:32.537Z,1017.87
2022-08-24T09:42:32.496Z,1017.94
2022-08-24T09:43:32.485Z,1017.91
2022-08-24T09:44:32.474Z,1017.92
2022-08-24T09:45:32.463Z,1017.94
2022-08-24T09:46:32.452Z,1017.91
2022-08-24T09:47:32.449Z,1017.89
2022-08-24T09:48:32.431Z,1017.90
2022-08-24T09:49:32.422Z,1017.87
2022-08-24T09:50:32.417Z,1017.85
2022-08-24T09:51:32.398Z,1017.88
2022-08-24T09:52:32.386Z,1017.87
2022-08-24T09:53:32.407Z,1017.87
2022-08-24T09:54:32.366Z,1017.86
2022-08-24T09:55:32.355Z,1017.85
2022-08-24T09:56:32.344Z,1017.84
2022-08-24T09:57:50.289Z,1017.80
2022-08-24T09:58:33.341Z,1017.80
2022-08-24T09:59:32.312Z,1017.77
2022-08-24T10:00:32.299Z,1017.78
2022-08-24T10:01:32.379Z,1017.72
2022-08-24T10:02:32.383Z,1017.75
2022-08-24T10:03:36.252Z,1017.76
2022-08-24T10:04:33.401Z,1017.72
2022-08-24T10:05:36.400Z,1017.66
2022-08-24T10:06:32.237Z,1017.72
2022-08-24T10:07:32.228Z,1017.69
2022-08-24T10:08:32.216Z,1017.64
2022-08-24T10:09:32.202Z,1017.62
2022-08-24T10:10:32.206Z,1017.66
2022-08-24T10:11:32.181Z,1017.67
2022-08-24T10:12:32.170Z,1017.63
2022-08-24T10:13:32.161Z,1017.67
2022-08-24T10:14:32.148Z,1017.65
2022-08-24T10:15:32.140Z,1017.69
2022-08-24T10:16:32.212Z,1017.64
2022-08-24T10:17:32.116Z,1017.70
2022-08-24T10:18:35.136Z,1017.64
2022-08-24T10:19:32.102Z,1017.60
2022-08-24T10:20:32.084Z,1017.62
2022-08-24T10:21:32.074Z,1017.63
2022-08-24T10:22:32.067Z,1017.59
2022-08-24T10:23:32.052Z,1017.61
2022-08-24T10:24:32.041Z,1017.61
2022-08-24T10:25:32.029Z,1017.62
2022-08-24T10:26:32.019Z,1017.66
2022-08-24T10:27:32.018Z,1017.65
2022-08-24T10:28:32.005Z,1017.64
2022-08-24T10:29:31.994Z,1017.63
2022-08-24T10:30:31.976Z,1017.61
2022-08-24T10:31:32.051Z,1017.61
2022-08-24T10:32:31.957Z,1017.60
2022-08-24T10:33:31.943Z,1017.59
2022-08-24T10:34:31.940Z,1017.58
2022-08-24T10:35:31.921Z,1017.59
2022-08-24T10:36:31.911Z,1017.57
2022-08-24T10:37:31.900Z,1017.55
2022-08-24T10:38:31.893Z,1017.57
2022-08-24T10:39:31.879Z,1017.53
2022-08-24T10:40:31.983Z,1017.55
2022-08-24T10:41:31.856Z,1017.52
2022-08-24T10:42:31.846Z,1017.52
2022-08-24T10:43:31.835Z,1017.47
2022-08-24T10:44:31.824Z,1017.50
2022-08-24T10:45:31.919Z,1017.48
2022-08-24T10:46:31.809Z,1017.48
2022-08-24T10:47:31.794Z,1017.50
2022-08-24T10:48:33.475Z,1017.49
2022-08-24T10:49:31.771Z,1017.52
2022-08-24T10:50:32.388Z,1017.47
2022-08-24T10:51:31.749Z,1017.49
2022-08-24T10:52:31.744Z,1017.50
2022-08-24T10:53:31.728Z,1017.47
2022-08-24T10:54:31.716Z,1017.48
2022-08-24T10:55:31.708Z,1017.49
2022-08-24T10:56:31.697Z,1017.47
2022-08-24T10:57:31.683Z,1017.49
2022-08-24T10:58:31.711Z,1017.50
2022-08-24T10:59:31.738Z,1017.48
2022-08-24T11:00:31.653Z,1017.45
2022-08-24T11:01:31.672Z,1017.50
2022-08-24T11:02:31.682Z,1017.48
2022-08-24T11:03:31.619Z,1017.45
2022-08-24T11:04:31.615Z,1017.48
2022-08-24T11:05:31.599Z,1017.45
2022-08-24T11:06:31.587Z,1017.48
2022-08-24T11:07:31.577Z,1017.46
2022-08-24T11:08:31.565Z,1017.50
2022-08-24T11:09:31.555Z,1017.46
2022-08-24T11:10:31.552Z,1017.49
2022-08-24T11:11:31.534Z,1017.46
2022-08-24T11:12:31.530Z,1017.44
2022-08-24T11:13:31.513Z,1017.41
2022-08-24T11:14:31.502Z,1017.42
2022-08-24T11:15:31.495Z,1017.40
2022-08-24T11:16:31.587Z,1017.39
2022-08-24T11:17:31.468Z,1017.32
2022-08-24T11:18:31.458Z,1017.32
2022-08-24T11:19:31.453Z,1017.33
2022-08-24T11:20:31.437Z,1017.33
2022-08-24T11:21:31.426Z,1017.36
2022-08-24T11:22:31.438Z,1017.33
2022-08-24T11:23:31.870Z,1017.34
2022-08-24T11:24:31.395Z,1017.34
2022-08-24T11:25:31.388Z,1017.38
2022-08-24T11:26:31.376Z,1017.38
2022-08-24T11:27:31.363Z,1017.40
2022-08-24T11:28:31.359Z,1017.37
2022-08-24T11:29:31.342Z,1017.34
2022-08-24T11:30:31.331Z,1017.34
2022-08-24T11:31:35.465Z,1017.35
2022-08-24T11:32:31.311Z,1017.36
2022-08-24T11:33:31.300Z,1017.31
2022-08-24T11:34:31.294Z,1017.37
2022-08-24T11:35:31.278Z,1017.30
2022-08-24T11:36:31.266Z,1017.37
2022-08-24T11:37:31.257Z,1017.33
2022-08-24T11:38:31.244Z,1017.36
2022-08-24T11:39:31.235Z,1017.37
2022-08-24T11:40:31.230Z,1017.29
2022-08-24T11:41:31.214Z,1017.29
2022-08-24T11:42:31.203Z,1017.30
2022-08-24T11:43:31.195Z,1017.34
2022-08-24T11:44:31.183Z,1017.30
2022-08-24T11:45:31.172Z,1017.31
2022-08-24T11:46:31.205Z,1017.30
2022-08-24T11:47:31.150Z,1017.29
2022-08-24T11:48:31.141Z,1017.29
2022-08-24T11:49:31.131Z,1017.26
2022-08-24T11:50:31.121Z,1017.23
2022-08-24T11:51:31.109Z,1017.24
2022-08-24T11:52:31.103Z,1017.29
2022-08-24T11:53:31.087Z,1017.32
2022-08-24T11:54:31.076Z,1017.24
2022-08-24T11:55:41.678Z,1017.24
2022-08-24T11:56:32.060Z,1017.18
2022-08-24T11:57:31.046Z,1017.22
2022-08-24T11:58:31.048Z,1017.23
2022-08-24T11:59:31.022Z,1017.23
2022-08-24T12:00:31.015Z,1017.23
2022-08-24T12:01:31.005Z,1017.25
2022-08-24T12:02:31.116Z,1017.26
2022-08-24T12:03:30.983Z,1017.22
2022-08-24T12:04:31.006Z,1017.26
2022-08-24T12:05:30.961Z,1017.27
2022-08-24T12:06:32.133Z,1017.29
2022-08-24T12:07:30.939Z,1017.32
2022-08-24T12:08:30.929Z,1017.23